Pella, IA

4:27 PM CDT on August 03, 2015 (GMT -0500)
IADOT | | Change Station
CLOSE
Current Station
Personal Weather Station
Location: Pella, IA
Elevation: 889 ft
Nearby Weather Stations

Elev 889 ft 41.39 °N, 92.87 °W | Updated 27 days ago

Clear
Clear
78 °F
Feels Like 78 °F
N
2
Wind Variable Wind from NW
Gusts mph

Today
High -- | Low -- °F
--% Chance of Precip.
Yesterday
High -- | Low -- °F
Precip. -- in
6:08 AM 8:26 PM
Waning Gibbous, 84% visible
Pressure 29.95 in
Visibility 10.0 miles
Clouds Clear
Dew Point 61 °F
Humidity 56%
Rainfall in
Snow Depth Not available.
UV 6 out of 12
Pollen 6.60 out of 12
Air Quality Not available.
Flu Activity Not available.
METAR KPEA 032115Z AUTO 33005KT 10SM CLR 27/18 A2995 RMK AO2 T02680179

More Conditions Fewer Conditions

Pressure 29.95 in
Visibility 10.0 miles
Clouds Clear
Dew Point 61 °F
Humidity 56%
Rainfall in
Snow Depth Not available.
UV 6 out of 12
Pollen 6.60 out of 12
Air Quality Not available.
Flu Activity Not available.
METAR KPEA 032115Z AUTO 33005KT 10SM CLR 27/18 A2995 RMK AO2 T02680179

More Conditions Fewer Conditions

10-Day Weather Forecast

×

Almanac

Astronomy

Aug. 03, 2015 Rise Set
Actual Time
Civil Twilight
Nautical Twilight
Astronomical Twilight
Moon
Length of Visible Light
Length of Day
Tomorrow will be .
, % of the Moon is Illuminated

Today's Extremes

State Highs State Lows

Community

WunderPhotos

Upload Photos

1,843,770 photos uploaded!

WunderBlogs® & News

Nearby

Air Quality

  Air Quality AQ Index Pollutant
Not available.

Snow Depth

Station Depth Elevation

Earthquake Activity

City Distance Mag. Time & Date
Minimum magnitude displayed is 2.5.

Coastal Water Temperatures

Place Temperature

Stations

Nearby Weather Stations

Station Location Temp. Windchill Dew Point Humidity Wind Precip. Elev Updated Type